Terminal Aerodrome Forecast
Issued by NWS Mt. Holly, NJ

Home | Current Version | Previous Version | Text Only | Print | Product List | Glossary On
Versions: 1 2 3 4 5 6 7 8 9 10 11 12 13 14 15 16 17 18
000
FTUS41 KPHI 161004 AAA
TAFABE
TAF AMD
KABE 161004Z 1610/1706 VRB03KT P6SM OVC015
      TEMPO 1610/1614 3SM -SN OVC008
     FM161700 17004KT P6SM SCT015 BKN025
     FM162200 VRB03KT P6SM -SN OVC015
     FM170100 VRB03KT 1SM -SN OVC005=

USA.gov is the U.S. government's official web portal to all federal, state and local government web resources and services.